sensor_id;sensor_type;location;lat;lon;timestamp;P1;durP1;ratioP1;P2;durP2;ratioP2
20391;SDS011;10355;53.688;10.078;2023-05-20T00:00:31;4.10;;;0.70;;
20391;SDS011;10355;53.688;10.078;2023-05-20T00:03:14;2.45;;;0.77;;
20391;SDS011;10355;53.688;10.078;2023-05-20T00:05:57;1.52;;;0.63;;
20391;SDS011;10355;53.688;10.078;2023-05-20T00:08:40;1.50;;;0.80;;
20391;SDS011;10355;53.688;10.078;2023-05-20T00:11:22;0.82;;;0.50;;
20391;SDS011;10355;53.688;10.078;2023-05-20T00:14:05;3.88;;;0.70;;
20391;SDS011;10355;53.688;10.078;2023-05-20T00:16:49;1.27;;;0.65;;
20391;SDS011;10355;53.688;10.078;2023-05-20T00:19:32;0.93;;;0.55;;
20391;SDS011;10355;53.688;10.078;2023-05-20T00:22:15;1.40;;;0.60;;
20391;SDS011;10355;53.688;10.078;2023-05-20T00:24:57;0.85;;;0.68;;
20391;SDS011;10355;53.688;10.078;2023-05-20T00:27:40;1.85;;;0.70;;
20391;SDS011;10355;53.688;10.078;2023-05-20T00:30:23;0.80;;;0.60;;
20391;SDS011;10355;53.688;10.078;2023-05-20T00:33:07;1.75;;;0.60;;
20391;SDS011;10355;53.688;10.078;2023-05-20T00:35:52;0.85;;;0.50;;
20391;SDS011;10355;53.688;10.078;2023-05-20T00:38:35;1.23;;;0.73;;
20391;SDS011;10355;53.688;10.078;2023-05-20T00:41:17;2.75;;;0.70;;
20391;SDS011;10355;53.688;10.078;2023-05-20T00:44:01;0.55;;;0.50;;
20391;SDS011;10355;53.688;10.078;2023-05-20T00:46:45;1.13;;;0.60;;
20391;SDS011;10355;53.688;10.078;2023-05-20T00:49:29;1.85;;;0.70;;
20391;SDS011;10355;53.688;10.078;2023-05-20T00:52:12;0.85;;;0.60;;
20391;SDS011;10355;53.688;10.078;2023-05-20T00:54:55;2.38;;;0.57;;
20391;SDS011;10355;53.688;10.078;2023-05-20T00:57:38;0.88;;;0.60;;
20391;SDS011;10355;53.688;10.078;2023-05-20T01:00:21;2.50;;;0.70;;
20391;SDS011;10355;53.688;10.078;2023-05-20T01:03:04;0.95;;;0.68;;
20391;SDS011;10355;53.688;10.078;2023-05-20T01:05:48;2.53;;;0.77;;
20391;SDS011;10355;53.688;10.078;2023-05-20T01:08:31;1.65;;;0.52;;
20391;SDS011;10355;53.688;10.078;2023-05-20T01:11:15;1.92;;;0.70;;
20391;SDS011;10355;53.688;10.078;2023-05-20T01:14:00;1.98;;;0.70;;
20391;SDS011;10355;53.688;10.078;2023-05-20T01:16:46;2.58;;;0.90;;
20391;SDS011;10355;53.688;10.078;2023-05-20T01:19:37;1.25;;;0.60;;
20391;SDS011;10355;53.688;10.078;2023-05-20T01:22:24;1.90;;;0.60;;
20391;SDS011;10355;53.688;10.078;2023-05-20T01:25:08;4.10;;;0.90;;
20391;SDS011;10355;53.688;10.078;2023-05-20T01:27:51;2.15;;;0.60;;
20391;SDS011;10355;53.688;10.078;2023-05-20T01:30:34;1.90;;;0.65;;
20391;SDS011;10355;53.688;10.078;2023-05-20T01:33:20;3.22;;;0.80;;
20391;SDS011;10355;53.688;10.078;2023-05-20T01:36:05;1.63;;;0.73;;
20391;SDS011;10355;53.688;10.078;2023-05-20T01:38:50;1.38;;;0.60;;
20391;SDS011;10355;53.688;10.078;2023-05-20T01:41:33;2.42;;;0.70;;
20391;SDS011;10355;53.688;10.078;2023-05-20T01:44:17;3.15;;;0.80;;
20391;SDS011;10355;53.688;10.078;2023-05-20T01:47:00;1.65;;;0.80;;
20391;SDS011;10355;53.688;10.078;2023-05-20T01:49:42;1.88;;;0.75;;
20391;SDS011;10355;53.688;10.078;2023-05-20T01:52:26;1.75;;;0.70;;
20391;SDS011;10355;53.688;10.078;2023-05-20T01:55:12;2.03;;;0.70;;
20391;SDS011;10355;53.688;10.078;2023-05-20T01:57:55;1.45;;;0.77;;
20391;SDS011;10355;53.688;10.078;2023-05-20T02:00:39;1.58;;;0.80;;
20391;SDS011;10355;53.688;10.078;2023-05-20T02:03:22;1.98;;;0.73;;
20391;SDS011;10355;53.688;10.078;2023-05-20T02:06:05;1.90;;;0.52;;
20391;SDS011;10355;53.688;10.078;2023-05-20T02:08:48;1.85;;;0.80;;
20391;SDS011;10355;53.688;10.078;2023-05-20T02:11:33;1.15;;;0.60;;
20391;SDS011;10355;53.688;10.078;2023-05-20T02:14:17;2.42;;;0.80;;
20391;SDS011;10355;53.688;10.078;2023-05-20T02:16:59;2.13;;;0.70;;
20391;SDS011;10355;53.688;10.078;2023-05-20T02:19:42;2.65;;;0.95;;
20391;SDS011;10355;53.688;10.078;2023-05-20T02:22:25;2.80;;;0.60;;
20391;SDS011;10355;53.688;10.078;2023-05-20T02:25:08;1.75;;;0.80;;
20391;SDS011;10355;53.688;10.078;2023-05-20T02:27:52;2.08;;;0.90;;
20391;SDS011;10355;53.688;10.078;2023-05-20T02:30:35;2.65;;;0.70;;
20391;SDS011;10355;53.688;10.078;2023-05-20T02:33:18;1.52;;;0.90;;
20391;SDS011;10355;53.688;10.078;2023-05-20T02:36:00;1.85;;;0.80;;
20391;SDS011;10355;53.688;10.078;2023-05-20T02:38:43;2.13;;;0.80;;
20391;SDS011;10355;53.688;10.078;2023-05-20T02:41:26;1.23;;;0.75;;
20391;SDS011;10355;53.688;10.078;2023-05-20T02:44:10;3.05;;;0.90;;
20391;SDS011;10355;53.688;10.078;2023-05-20T02:46:53;2.78;;;0.50;;
20391;SDS011;10355;53.688;10.078;2023-05-20T02:49:35;2.35;;;1.00;;
20391;SDS011;10355;53.688;10.078;2023-05-20T02:52:18;3.10;;;0.70;;
20391;SDS011;10355;53.688;10.078;2023-05-20T02:55:01;2.33;;;0.90;;
20391;SDS011;10355;53.688;10.078;2023-05-20T02:57:44;1.83;;;0.70;;
20391;SDS011;10355;53.688;10.078;2023-05-20T03:00:28;1.85;;;0.77;;
20391;SDS011;10355;53.688;10.078;2023-05-20T03:03:11;1.95;;;0.90;;
20391;SDS011;10355;53.688;10.078;2023-05-20T03:05:56;2.65;;;0.80;;
20391;SDS011;10355;53.688;10.078;2023-05-20T03:08:38;2.00;;;0.82;;
20391;SDS011;10355;53.688;10.078;2023-05-20T03:11:23;2.53;;;0.88;;
20391;SDS011;10355;53.688;10.078;2023-05-20T03:14:06;3.08;;;0.80;;
20391;SDS011;10355;53.688;10.078;2023-05-20T03:16:50;0.82;;;0.70;;
20391;SDS011;10355;53.688;10.078;2023-05-20T03:19:35;2.13;;;0.70;;
20391;SDS011;10355;53.688;10.078;2023-05-20T03:22:18;1.77;;;0.70;;
20391;SDS011;10355;53.688;10.078;2023-05-20T03:25:02;1.73;;;0.73;;
20391;SDS011;10355;53.688;10.078;2023-05-20T03:27:45;2.47;;;0.70;;
20391;SDS011;10355;53.688;10.078;2023-05-20T03:30:28;3.08;;;0.85;;
20391;SDS011;10355;53.688;10.078;2023-05-20T03:33:13;2.55;;;0.70;;
20391;SDS011;10355;53.688;10.078;2023-05-20T03:35:56;1.52;;;0.70;;
20391;SDS011;10355;53.688;10.078;2023-05-20T03:38:38;2.28;;;0.60;;
20391;SDS011;10355;53.688;10.078;2023-05-20T03:41:21;2.65;;;0.90;;
20391;SDS011;10355;53.688;10.078;2023-05-20T03:44:05;1.48;;;0.70;;
20391;SDS011;10355;53.688;10.078;2023-05-20T03:46:47;2.15;;;0.80;;
20391;SDS011;10355;53.688;10.078;2023-05-20T03:49:31;3.03;;;0.60;;
20391;SDS011;10355;53.688;10.078;2023-05-20T03:52:14;1.77;;;0.60;;
20391;SDS011;10355;53.688;10.078;2023-05-20T03:54:57;1.38;;;0.60;;
20391;SDS011;10355;53.688;10.078;2023-05-20T03:57:39;1.25;;;0.60;;
20391;SDS011;10355;53.688;10.078;2023-05-20T04:00:22;2.20;;;0.70;;
20391;SDS011;10355;53.688;10.078;2023-05-20T04:03:05;2.53;;;0.88;;
20391;SDS011;10355;53.688;10.078;2023-05-20T04:05:50;3.05;;;0.88;;
20391;SDS011;10355;53.688;10.078;2023-05-20T04:08:35;1.50;;;0.63;;
20391;SDS011;10355;53.688;10.078;2023-05-20T04:11:18;1.95;;;0.60;;
20391;SDS011;10355;53.688;10.078;2023-05-20T04:14:02;1.98;;;0.60;;
20391;SDS011;10355;53.688;10.078;2023-05-20T04:16:44;2.08;;;0.80;;
20391;SDS011;10355;53.688;10.078;2023-05-20T04:19:27;2.15;;;0.70;;
20391;SDS011;10355;53.688;10.078;2023-05-20T04:22:12;4.03;;;0.90;;
20391;SDS011;10355;53.688;10.078;2023-05-20T04:24:55;1.55;;;0.70;;
20391;SDS011;10355;53.688;10.078;2023-05-20T04:27:38;2.53;;;0.60;;
20391;SDS011;10355;53.688;10.078;2023-05-20T04:30:21;2.53;;;0.60;;
20391;SDS011;10355;53.688;10.078;2023-05-20T04:33:03;2.85;;;0.98;;
20391;SDS011;10355;53.688;10.078;2023-05-20T04:35:47;2.63;;;0.80;;
20391;SDS011;10355;53.688;10.078;2023-05-20T04:38:31;1.08;;;0.60;;
20391;SDS011;10355;53.688;10.078;2023-05-20T04:41:15;2.13;;;0.82;;
20391;SDS011;10355;53.688;10.078;2023-05-20T04:43:58;2.83;;;0.73;;
20391;SDS011;10355;53.688;10.078;2023-05-20T04:46:42;2.60;;;0.70;;
20391;SDS011;10355;53.688;10.078;2023-05-20T04:49:25;1.77;;;0.75;;
20391;SDS011;10355;53.688;10.078;2023-05-20T04:52:09;1.17;;;0.77;;
20391;SDS011;10355;53.688;10.078;2023-05-20T04:54:54;3.53;;;0.70;;
20391;SDS011;10355;53.688;10.078;2023-05-20T04:57:38;2.35;;;0.80;;
20391;SDS011;10355;53.688;10.078;2023-05-20T05:00:23;1.23;;;0.60;;
20391;SDS011;10355;53.688;10.078;2023-05-20T05:03:07;1.95;;;0.60;;
20391;SDS011;10355;53.688;10.078;2023-05-20T05:05:50;3.53;;;0.90;;
20391;SDS011;10355;53.688;10.078;2023-05-20T05:08:36;1.23;;;0.65;;
20391;SDS011;10355;53.688;10.078;2023-05-20T05:11:20;2.60;;;0.80;;
20391;SDS011;10355;53.688;10.078;2023-05-20T05:14:03;1.85;;;0.98;;
20391;SDS011;10355;53.688;10.078;2023-05-20T05:16:46;3.35;;;0.80;;
20391;SDS011;10355;53.688;10.078;2023-05-20T05:19:29;5.00;;;0.80;;
20391;SDS011;10355;53.688;10.078;2023-05-20T05:22:12;2.78;;;0.90;;
20391;SDS011;10355;53.688;10.078;2023-05-20T05:24:55;4.28;;;0.98;;
20391;SDS011;10355;53.688;10.078;2023-05-20T05:27:40;1.95;;;0.70;;
20391;SDS011;10355;53.688;10.078;2023-05-20T05:30:23;1.48;;;0.77;;
20391;SDS011;10355;53.688;10.078;2023-05-20T05:33:06;1.10;;;0.70;;
20391;SDS011;10355;53.688;10.078;2023-05-20T05:35:49;1.92;;;0.90;;
20391;SDS011;10355;53.688;10.078;2023-05-20T05:38:32;4.32;;;0.80;;
20391;SDS011;10355;53.688;10.078;2023-05-20T05:41:15;2.40;;;0.90;;
20391;SDS011;10355;53.688;10.078;2023-05-20T05:43:59;2.05;;;0.75;;
20391;SDS011;10355;53.688;10.078;2023-05-20T05:46:42;1.88;;;0.73;;
20391;SDS011;10355;53.688;10.078;2023-05-20T05:49:25;4.50;;;0.90;;
20391;SDS011;10355;53.688;10.078;2023-05-20T05:52:08;2.63;;;0.85;;
20391;SDS011;10355;53.688;10.078;2023-05-20T05:54:51;2.38;;;0.60;;
20391;SDS011;10355;53.688;10.078;2023-05-20T05:57:34;3.20;;;0.80;;
20391;SDS011;10355;53.688;10.078;2023-05-20T06:00:18;2.15;;;0.80;;
20391;SDS011;10355;53.688;10.078;2023-05-20T06:03:02;2.65;;;0.70;;
20391;SDS011;10355;53.688;10.078;2023-05-20T06:05:49;3.03;;;0.73;;
20391;SDS011;10355;53.688;10.078;2023-05-20T06:08:33;4.03;;;0.85;;
20391;SDS011;10355;53.688;10.078;2023-05-20T06:11:16;2.83;;;0.90;;
20391;SDS011;10355;53.688;10.078;2023-05-20T06:13:59;8.10;;;1.15;;
20391;SDS011;10355;53.688;10.078;2023-05-20T06:16:43;2.17;;;0.82;;
20391;SDS011;10355;53.688;10.078;2023-05-20T06:19:26;4.57;;;0.90;;
20391;SDS011;10355;53.688;10.078;2023-05-20T06:22:09;4.32;;;1.08;;
20391;SDS011;10355;53.688;10.078;2023-05-20T06:24:52;3.78;;;1.00;;
20391;SDS011;10355;53.688;10.078;2023-05-20T06:27:36;3.22;;;0.90;;
20391;SDS011;10355;53.688;10.078;2023-05-20T06:30:22;4.97;;;0.90;;
20391;SDS011;10355;53.688;10.078;2023-05-20T06:33:06;2.85;;;0.80;;
20391;SDS011;10355;53.688;10.078;2023-05-20T06:35:49;2.40;;;0.52;;
20391;SDS011;10355;53.688;10.078;2023-05-20T06:38:31;2.63;;;0.98;;
20391;SDS011;10355;53.688;10.078;2023-05-20T06:41:15;4.30;;;0.90;;
20391;SDS011;10355;53.688;10.078;2023-05-20T06:43:58;2.55;;;1.05;;
20391;SDS011;10355;53.688;10.078;2023-05-20T06:47:02;3.20;;;1.10;;
20391;SDS011;10355;53.688;10.078;2023-05-20T06:49:47;2.60;;;1.10;;
20391;SDS011;10355;53.688;10.078;2023-05-20T06:52:29;2.35;;;0.77;;
20391;SDS011;10355;53.688;10.078;2023-05-20T06:55:12;3.67;;;1.00;;
20391;SDS011;10355;53.688;10.078;2023-05-20T06:57:55;3.70;;;1.00;;
20391;SDS011;10355;53.688;10.078;2023-05-20T07:00:38;1.67;;;0.95;;
20391;SDS011;10355;53.688;10.078;2023-05-20T07:03:22;4.47;;;1.05;;
20391;SDS011;10355;53.688;10.078;2023-05-20T07:06:06;2.25;;;1.00;;
20391;SDS011;10355;53.688;10.078;2023-05-20T07:08:49;4.15;;;1.00;;
20391;SDS011;10355;53.688;10.078;2023-05-20T07:11:32;4.07;;;1.20;;
20391;SDS011;10355;53.688;10.078;2023-05-20T07:14:15;2.55;;;1.00;;
20391;SDS011;10355;53.688;10.078;2023-05-20T07:16:59;2.38;;;0.90;;
20391;SDS011;10355;53.688;10.078;2023-05-20T07:19:42;1.90;;;1.15;;
20391;SDS011;10355;53.688;10.078;2023-05-20T07:22:26;3.35;;;1.00;;
20391;SDS011;10355;53.688;10.078;2023-05-20T07:25:24;1.77;;;1.02;;
20391;SDS011;10355;53.688;10.078;2023-05-20T07:28:07;3.45;;;1.17;;
20391;SDS011;10355;53.688;10.078;2023-05-20T07:30:50;1.83;;;0.82;;
20391;SDS011;10355;53.688;10.078;2023-05-20T07:33:39;3.85;;;0.95;;
20391;SDS011;10355;53.688;10.078;2023-05-20T07:36:22;2.75;;;1.27;;
20391;SDS011;10355;53.688;10.078;2023-05-20T07:39:08;3.58;;;1.27;;
20391;SDS011;10355;53.688;10.078;2023-05-20T07:41:55;4.68;;;1.23;;
20391;SDS011;10355;53.688;10.078;2023-05-20T07:44:38;2.20;;;1.00;;
20391;SDS011;10355;53.688;10.078;2023-05-20T07:47:21;2.35;;;1.27;;
20391;SDS011;10355;53.688;10.078;2023-05-20T07:50:04;4.20;;;1.17;;
20391;SDS011;10355;53.688;10.078;2023-05-20T07:52:48;4.05;;;1.30;;
20391;SDS011;10355;53.688;10.078;2023-05-20T07:55:41;2.67;;;1.10;;
20391;SDS011;10355;53.688;10.078;2023-05-20T07:58:24;1.67;;;1.05;;
20391;SDS011;10355;53.688;10.078;2023-05-20T08:01:07;2.50;;;1.05;;
20391;SDS011;10355;53.688;10.078;2023-05-20T08:03:50;4.35;;;1.00;;
20391;SDS011;10355;53.688;10.078;2023-05-20T08:06:35;3.40;;;1.17;;
20391;SDS011;10355;53.688;10.078;2023-05-20T08:09:20;2.95;;;1.05;;
20391;SDS011;10355;53.688;10.078;2023-05-20T08:12:08;2.60;;;1.15;;
20391;SDS011;10355;53.688;10.078;2023-05-20T08:14:52;2.58;;;1.20;;
20391;SDS011;10355;53.688;10.078;2023-05-20T08:17:35;2.28;;;1.17;;
20391;SDS011;10355;53.688;10.078;2023-05-20T08:20:19;3.95;;;1.25;;
20391;SDS011;10355;53.688;10.078;2023-05-20T08:23:03;3.05;;;1.20;;
20391;SDS011;10355;53.688;10.078;2023-05-20T08:25:46;4.05;;;1.10;;
20391;SDS011;10355;53.688;10.078;2023-05-20T08:28:31;2.88;;;1.27;;
20391;SDS011;10355;53.688;10.078;2023-05-20T08:31:17;4.00;;;1.48;;
20391;SDS011;10355;53.688;10.078;2023-05-20T08:34:00;3.08;;;1.33;;
20391;SDS011;10355;53.688;10.078;2023-05-20T08:36:43;3.80;;;1.38;;
20391;SDS011;10355;53.688;10.078;2023-05-20T08:39:26;4.90;;;1.95;;
20391;SDS011;10355;53.688;10.078;2023-05-20T08:42:10;3.50;;;1.20;;
20391;SDS011;10355;53.688;10.078;2023-05-20T08:44:55;3.50;;;1.10;;
20391;SDS011;10355;53.688;10.078;2023-05-20T08:47:40;1.80;;;1.10;;
20391;SDS011;10355;53.688;10.078;2023-05-20T08:50:23;1.52;;;1.00;;
20391;SDS011;10355;53.688;10.078;2023-05-20T08:53:06;2.92;;;1.17;;
20391;SDS011;10355;53.688;10.078;2023-05-20T08:55:53;3.35;;;1.20;;
20391;SDS011;10355;53.688;10.078;2023-05-20T08:58:41;4.18;;;1.10;;
20391;SDS011;10355;53.688;10.078;2023-05-20T09:01:26;3.47;;;1.15;;
20391;SDS011;10355;53.688;10.078;2023-05-20T09:04:08;2.50;;;1.10;;
20391;SDS011;10355;53.688;10.078;2023-05-20T09:06:51;2.35;;;1.30;;
20391;SDS011;10355;53.688;10.078;2023-05-20T09:09:35;2.38;;;0.90;;
20391;SDS011;10355;53.688;10.078;2023-05-20T09:12:18;6.00;;;1.35;;
20391;SDS011;10355;53.688;10.078;2023-05-20T09:15:01;3.17;;;0.90;;
20391;SDS011;10355;53.688;10.078;2023-05-20T09:17:48;1.85;;;0.77;;
20391;SDS011;10355;53.688;10.078;2023-05-20T09:20:32;2.30;;;1.00;;
20391;SDS011;10355;53.688;10.078;2023-05-20T09:23:17;2.00;;;0.85;;
20391;SDS011;10355;53.688;10.078;2023-05-20T09:26:00;1.80;;;0.98;;
20391;SDS011;10355;53.688;10.078;2023-05-20T09:28:43;3.65;;;1.10;;
20391;SDS011;10355;53.688;10.078;2023-05-20T09:31:26;2.45;;;0.88;;
20391;SDS011;10355;53.688;10.078;2023-05-20T09:34:11;2.67;;;0.90;;
20391;SDS011;10355;53.688;10.078;2023-05-20T09:36:53;1.60;;;0.93;;
20391;SDS011;10355;53.688;10.078;2023-05-20T09:39:38;2.70;;;1.20;;
20391;SDS011;10355;53.688;10.078;2023-05-20T09:42:26;1.20;;;0.80;;
20391;SDS011;10355;53.688;10.078;2023-05-20T09:45:09;3.20;;;1.05;;
20391;SDS011;10355;53.688;10.078;2023-05-20T09:47:53;2.22;;;0.90;;
20391;SDS011;10355;53.688;10.078;2023-05-20T09:50:38;1.83;;;1.10;;
20391;SDS011;10355;53.688;10.078;2023-05-20T09:53:20;3.55;;;1.30;;
20391;SDS011;10355;53.688;10.078;2023-05-20T09:56:03;4.28;;;1.60;;
20391;SDS011;10355;53.688;10.078;2023-05-20T09:58:48;3.20;;;1.20;;
20391;SDS011;10355;53.688;10.078;2023-05-20T10:01:31;1.90;;;1.20;;
20391;SDS011;10355;53.688;10.078;2023-05-20T10:04:14;2.53;;;1.17;;
20391;SDS011;10355;53.688;10.078;2023-05-20T10:07:04;2.13;;;0.93;;
20391;SDS011;10355;53.688;10.078;2023-05-20T10:09:53;3.35;;;1.20;;
20391;SDS011;10355;53.688;10.078;2023-05-20T10:12:38;2.03;;;1.02;;
20391;SDS011;10355;53.688;10.078;2023-05-20T10:15:26;1.92;;;0.95;;
20391;SDS011;10355;53.688;10.078;2023-05-20T10:18:12;1.85;;;1.00;;
20391;SDS011;10355;53.688;10.078;2023-05-20T10:20:59;1.95;;;0.98;;
20391;SDS011;10355;53.688;10.078;2023-05-20T10:23:43;3.78;;;1.00;;
20391;SDS011;10355;53.688;10.078;2023-05-20T10:26:33;2.80;;;1.10;;
20391;SDS011;10355;53.688;10.078;2023-05-20T10:29:16;1.48;;;1.00;;
20391;SDS011;10355;53.688;10.078;2023-05-20T10:32:00;3.65;;;1.02;;
20391;SDS011;10355;53.688;10.078;2023-05-20T10:34:43;5.07;;;1.02;;
20391;SDS011;10355;53.688;10.078;2023-05-20T10:37:27;2.67;;;1.10;;
20391;SDS011;10355;53.688;10.078;2023-05-20T10:40:12;2.47;;;1.05;;
20391;SDS011;10355;53.688;10.078;2023-05-20T10:42:55;4.47;;;1.10;;
20391;SDS011;10355;53.688;10.078;2023-05-20T10:45:48;3.67;;;1.30;;
20391;SDS011;10355;53.688;10.078;2023-05-20T10:48:31;4.50;;;1.40;;
20391;SDS011;10355;53.688;10.078;2023-05-20T10:51:15;2.20;;;1.27;;
20391;SDS011;10355;53.688;10.078;2023-05-20T10:53:58;4.28;;;1.20;;
20391;SDS011;10355;53.688;10.078;2023-05-20T10:56:50;3.25;;;1.10;;
20391;SDS011;10355;53.688;10.078;2023-05-20T10:59:33;1.60;;;0.93;;
20391;SDS011;10355;53.688;10.078;2023-05-20T11:02:18;2.53;;;1.30;;
20391;SDS011;10355;53.688;10.078;2023-05-20T11:05:08;2.20;;;1.10;;
20391;SDS011;10355;53.688;10.078;2023-05-20T11:07:59;2.30;;;1.10;;
20391;SDS011;10355;53.688;10.078;2023-05-20T11:10:43;4.63;;;1.25;;
20391;SDS011;10355;53.688;10.078;2023-05-20T11:13:27;2.00;;;1.20;;
20391;SDS011;10355;53.688;10.078;2023-05-20T11:16:11;1.85;;;1.10;;
20391;SDS011;10355;53.688;10.078;2023-05-20T11:18:53;3.08;;;1.20;;
20391;SDS011;10355;53.688;10.078;2023-05-20T11:21:41;3.10;;;1.10;;
20391;SDS011;10355;53.688;10.078;2023-05-20T11:24:24;5.60;;;1.17;;
20391;SDS011;10355;53.688;10.078;2023-05-20T11:27:07;4.30;;;1.08;;
20391;SDS011;10355;53.688;10.078;2023-05-20T11:29:52;1.35;;;1.00;;
20391;SDS011;10355;53.688;10.078;2023-05-20T11:32:34;1.60;;;1.00;;
20391;SDS011;10355;53.688;10.078;2023-05-20T11:35:21;2.17;;;1.25;;
20391;SDS011;10355;53.688;10.078;2023-05-20T11:38:05;3.10;;;1.70;;
20391;SDS011;10355;53.688;10.078;2023-05-20T11:40:50;4.47;;;1.30;;
20391;SDS011;10355;53.688;10.078;2023-05-20T11:43:33;1.65;;;0.93;;
20391;SDS011;10355;53.688;10.078;2023-05-20T11:46:17;5.53;;;1.42;;
20391;SDS011;10355;53.688;10.078;2023-05-20T11:49:02;4.30;;;1.25;;
20391;SDS011;10355;53.688;10.078;2023-05-20T11:51:45;3.72;;;1.27;;
20391;SDS011;10355;53.688;10.078;2023-05-20T11:54:27;2.38;;;1.15;;
20391;SDS011;10355;53.688;10.078;2023-05-20T11:57:10;4.97;;;1.23;;
20391;SDS011;10355;53.688;10.078;2023-05-20T11:59:53;1.95;;;1.10;;
20391;SDS011;10355;53.688;10.078;2023-05-20T12:02:37;3.22;;;1.30;;
20391;SDS011;10355;53.688;10.078;2023-05-20T12:05:20;2.33;;;1.10;;
20391;SDS011;10355;53.688;10.078;2023-05-20T12:08:03;3.30;;;0.93;;
20391;SDS011;10355;53.688;10.078;2023-05-20T12:10:45;3.13;;;1.20;;
20391;SDS011;10355;53.688;10.078;2023-05-20T12:13:28;3.92;;;1.20;;
20391;SDS011;10355;53.688;10.078;2023-05-20T12:16:12;2.85;;;1.30;;
20391;SDS011;10355;53.688;10.078;2023-05-20T12:18:57;1.95;;;1.30;;
20391;SDS011;10355;53.688;10.078;2023-05-20T12:21:40;2.65;;;1.38;;
20391;SDS011;10355;53.688;10.078;2023-05-20T12:24:22;1.98;;;1.10;;
20391;SDS011;10355;53.688;10.078;2023-05-20T12:27:05;3.05;;;1.23;;
20391;SDS011;10355;53.688;10.078;2023-05-20T12:29:48;3.20;;;1.40;;
20391;SDS011;10355;53.688;10.078;2023-05-20T12:32:30;2.72;;;1.25;;
20391;SDS011;10355;53.688;10.078;2023-05-20T12:35:15;2.20;;;1.20;;
20391;SDS011;10355;53.688;10.078;2023-05-20T12:37:57;3.10;;;1.08;;
20391;SDS011;10355;53.688;10.078;2023-05-20T12:40:40;2.85;;;1.23;;
20391;SDS011;10355;53.688;10.078;2023-05-20T12:43:23;4.18;;;1.10;;
20391;SDS011;10355;53.688;10.078;2023-05-20T12:46:06;5.65;;;1.17;;
20391;SDS011;10355;53.688;10.078;2023-05-20T12:48:49;2.20;;;1.30;;
20391;SDS011;10355;53.688;10.078;2023-05-20T12:51:33;3.30;;;1.40;;
20391;SDS011;10355;53.688;10.078;2023-05-20T12:54:16;4.35;;;1.25;;
20391;SDS011;10355;53.688;10.078;2023-05-20T12:56:58;3.50;;;1.50;;
20391;SDS011;10355;53.688;10.078;2023-05-20T12:59:41;4.13;;;1.80;;
20391;SDS011;10355;53.688;10.078;2023-05-20T13:02:24;5.70;;;2.80;;
20391;SDS011;10355;53.688;10.078;2023-05-20T13:05:07;4.13;;;2.10;;
20391;SDS011;10355;53.688;10.078;2023-05-20T13:07:52;3.60;;;1.92;;
20391;SDS011;10355;53.688;10.078;2023-05-20T13:10:35;2.70;;;1.45;;
20391;SDS011;10355;53.688;10.078;2023-05-20T13:13:18;3.17;;;1.50;;
20391;SDS011;10355;53.688;10.078;2023-05-20T13:16:02;3.13;;;1.45;;
20391;SDS011;10355;53.688;10.078;2023-05-20T13:18:45;2.83;;;1.23;;
20391;SDS011;10355;53.688;10.078;2023-05-20T13:21:28;3.88;;;1.50;;
20391;SDS011;10355;53.688;10.078;2023-05-20T13:24:13;5.18;;;1.30;;
20391;SDS011;10355;53.688;10.078;2023-05-20T13:26:56;2.85;;;1.30;;
20391;SDS011;10355;53.688;10.078;2023-05-20T13:29:39;1.85;;;1.38;;
20391;SDS011;10355;53.688;10.078;2023-05-20T13:32:22;2.50;;;1.10;;
20391;SDS011;10355;53.688;10.078;2023-05-20T13:35:05;3.45;;;1.38;;
20391;SDS011;10355;53.688;10.078;2023-05-20T13:37:48;1.75;;;1.00;;
20391;SDS011;10355;53.688;10.078;2023-05-20T13:40:32;5.10;;;1.20;;
20391;SDS011;10355;53.688;10.078;2023-05-20T13:43:15;2.47;;;1.25;;
20391;SDS011;10355;53.688;10.078;2023-05-20T13:45:58;2.40;;;1.40;;
20391;SDS011;10355;53.688;10.078;2023-05-20T13:48:41;2.80;;;1.40;;
20391;SDS011;10355;53.688;10.078;2023-05-20T13:51:24;3.63;;;1.35;;
20391;SDS011;10355;53.688;10.078;2023-05-20T13:54:06;2.38;;;1.20;;
20391;SDS011;10355;53.688;10.078;2023-05-20T13:56:51;3.38;;;1.42;;
20391;SDS011;10355;53.688;10.078;2023-05-20T13:59:34;4.30;;;1.50;;
20391;SDS011;10355;53.688;10.078;2023-05-20T14:02:17;3.78;;;1.20;;
20391;SDS011;10355;53.688;10.078;2023-05-20T14:05:00;3.70;;;1.50;;
20391;SDS011;10355;53.688;10.078;2023-05-20T14:07:42;2.85;;;1.20;;
20391;SDS011;10355;53.688;10.078;2023-05-20T14:10:25;4.18;;;1.45;;
20391;SDS011;10355;53.688;10.078;2023-05-20T14:13:10;2.33;;;1.00;;
20391;SDS011;10355;53.688;10.078;2023-05-20T14:15:52;2.55;;;1.23;;
20391;SDS011;10355;53.688;10.078;2023-05-20T14:18:36;3.05;;;1.27;;
20391;SDS011;10355;53.688;10.078;2023-05-20T14:21:18;2.50;;;1.30;;
20391;SDS011;10355;53.688;10.078;2023-05-20T14:24:01;5.32;;;1.70;;
20391;SDS011;10355;53.688;10.078;2023-05-20T14:26:44;3.78;;;1.55;;
20391;SDS011;10355;53.688;10.078;2023-05-20T14:29:28;5.20;;;1.55;;
20391;SDS011;10355;53.688;10.078;2023-05-20T14:32:10;4.68;;;1.40;;
20391;SDS011;10355;53.688;10.078;2023-05-20T14:34:54;3.85;;;1.20;;
20391;SDS011;10355;53.688;10.078;2023-05-20T14:37:37;3.05;;;1.20;;
20391;SDS011;10355;53.688;10.078;2023-05-20T14:40:20;2.33;;;1.05;;
20391;SDS011;10355;53.688;10.078;2023-05-20T14:43:02;2.65;;;1.20;;
20391;SDS011;10355;53.688;10.078;2023-05-20T14:45:46;2.00;;;1.20;;
20391;SDS011;10355;53.688;10.078;2023-05-20T14:48:29;4.07;;;1.50;;
20391;SDS011;10355;53.688;10.078;2023-05-20T14:51:12;3.17;;;1.30;;
20391;SDS011;10355;53.688;10.078;2023-05-20T14:53:55;2.75;;;1.35;;
20391;SDS011;10355;53.688;10.078;2023-05-20T14:56:37;3.65;;;1.23;;
20391;SDS011;10355;53.688;10.078;2023-05-20T14:59:21;3.88;;;1.67;;
20391;SDS011;10355;53.688;10.078;2023-05-20T15:02:07;3.42;;;1.27;;
20391;SDS011;10355;53.688;10.078;2023-05-20T15:04:50;2.50;;;1.23;;
20391;SDS011;10355;53.688;10.078;2023-05-20T15:07:32;3.92;;;1.35;;
20391;SDS011;10355;53.688;10.078;2023-05-20T15:10:15;2.30;;;1.20;;
20391;SDS011;10355;53.688;10.078;2023-05-20T15:12:58;4.03;;;1.08;;
20391;SDS011;10355;53.688;10.078;2023-05-20T15:15:41;5.03;;;1.30;;
20391;SDS011;10355;53.688;10.078;2023-05-20T15:18:25;2.95;;;1.52;;
20391;SDS011;10355;53.688;10.078;2023-05-20T15:21:07;3.65;;;1.10;;
20391;SDS011;10355;53.688;10.078;2023-05-20T15:23:50;3.42;;;1.20;;
20391;SDS011;10355;53.688;10.078;2023-05-20T15:26:33;2.83;;;1.00;;
20391;SDS011;10355;53.688;10.078;2023-05-20T15:29:15;4.47;;;1.30;;
20391;SDS011;10355;53.688;10.078;2023-05-20T15:31:58;4.22;;;1.20;;
20391;SDS011;10355;53.688;10.078;2023-05-20T15:34:42;4.38;;;1.40;;
20391;SDS011;10355;53.688;10.078;2023-05-20T15:37:25;2.17;;;1.23;;
20391;SDS011;10355;53.688;10.078;2023-05-20T15:40:08;5.03;;;1.20;;
20391;SDS011;10355;53.688;10.078;2023-05-20T15:42:51;2.65;;;1.30;;
20391;SDS011;10355;53.688;10.078;2023-05-20T15:45:34;2.63;;;1.00;;
20391;SDS011;10355;53.688;10.078;2023-05-20T15:48:17;2.30;;;1.30;;
20391;SDS011;10355;53.688;10.078;2023-05-20T15:51:01;3.72;;;1.40;;
20391;SDS011;10355;53.688;10.078;2023-05-20T15:53:44;3.83;;;1.38;;
20391;SDS011;10355;53.688;10.078;2023-05-20T15:56:27;1.80;;;1.42;;
20391;SDS011;10355;53.688;10.078;2023-05-20T15:59:10;4.53;;;1.30;;
20391;SDS011;10355;53.688;10.078;2023-05-20T16:01:52;5.05;;;1.58;;
20391;SDS011;10355;53.688;10.078;2023-05-20T16:04:35;4.13;;;2.08;;
20391;SDS011;10355;53.688;10.078;2023-05-20T16:07:19;2.70;;;1.42;;
20391;SDS011;10355;53.688;10.078;2023-05-20T16:10:02;2.95;;;1.60;;